Nearby METAR Reports

 

KFRG - , , USA
Distance from station: SSW 12mi, 20km
Updated: 07/20/2017 9:53pm
Clear
Clear
 Wind from WNW
Wind: WNW 7 mph , 11 km/h
Temperature: 82°F , 28°C
Heat Index: 87°F , 31°C
Dew Point: 73°F , 23°C
Humidity: 74%
Barometer: 29.86 inHg , 1011.2 hPa
Clouds: Clear
Visibility: 10 miles , 16 km
2017/07/21 01:53 KFRG 210153Z 29006KT 10SM CLR 28/23 A2986 RMK AO2 SLP112 T02830228
KISP - , , USA
Distance from station: ESE 14mi, 23km
Updated: 07/20/2017 9:56pm
Mostly Cloudy
Mostly Cloudy
 Wind from SW
Wind: SW 7 mph , 11 km/h
Temperature: 81°F , 27°C
Heat Index: 88°F , 31°C
Dew Point: 77°F , 25°C
Humidity: 89%
Barometer: 29.85 inHg , 1010.8 hPa
Clouds: Mostly Cloudy
Visibility: 9 miles , 14 km
Cloud details: Few Clouds 6000 ft
Partly Cloudy 11000 ft
Mostly Cloudy 25000 ft
2017/07/21 01:56 KISP 210156Z 23006KT 9SM FEW060 SCT110 BKN250 27/25 A2985 RMK AO2 SLP106 T02670250
 
KBDR - , , USA
Distance from station: NNE 21mi, 34km
Updated: 07/20/2017 9:52pm
Light rain, Clear
Light rain, Clear
 Wind from W
Wind: W 8 mph , 13 km/h
Temperature: 82°F , 28°C
Heat Index: 87°F , 31°C
Dew Point: 73°F , 23°C
Humidity: 74%
Barometer: 29.84 inHg , 1010.5 hPa
Summary: Light Rain
Clouds: Clear
Visibility: 10 miles , 16 km
2017/07/21 01:52 KBDR 210152Z 28007KT 10SM -RA CLR 28/23 A2984 RMK AO2 RAB0058E35B52 SLP105 P0000 T02830228
KHPN - , , USA
Distance from station: WNW 22mi, 35km
Updated: 07/20/2017 9:56pm
Clear
Clear
 Wind from W
Wind: W 8 mph , 13 km/h
Temperature: 79°F , 26°C
Dew Point: 66°F , 19°C
Humidity: 65%
Barometer: 29.88 inHg , 1011.9 hPa
Clouds: Clear
Visibility: 10 miles , 16 km
2017/07/21 01:56 KHPN 210156Z 27007KT 10SM CLR 26/19 A2988 RMK SLP110
 
KHWV - , , USA
Distance from station: ESE 26mi, 41km
Updated: 07/20/2017 9:56pm
Clear
Clear
 Wind from SSW
Wind: SSW 7 mph , 11 km/h
Temperature: 81°F , 27°C
Heat Index: 89°F , 32°C
Dew Point: 79°F , 26°C
Humidity: 94%
Barometer: 29.85 inHg , 1010.8 hPa
Clouds: Clear
Visibility: 9 miles , 14 km
2017/07/21 01:56 KHWV 210156Z AUTO 20006KT 9SM CLR 27/26 A2985 RMK AO2 SLP106 T02720256
KJFK - , , USA
Distance from station: SW 29mi, 46km
Updated: 07/20/2017 9:51pm
Mostly Cloudy
Mostly Cloudy
 Wind from WNW
Wind: WNW 15 mph , 24 km/h
Temperature: 82°F , 28°C
Heat Index: 86°F , 30°C
Dew Point: 72°F , 22°C
Humidity: 70%
Barometer: 29.89 inHg , 1012.2 hPa
Clouds: Mostly Cloudy
Visibility: 10 miles , 16 km
Cloud details: Few Clouds 6000 ft
Few Clouds 15000 ft
Mostly Cloudy 19000 ft
Mostly Cloudy 25000 ft
2017/07/21 01:51 KJFK 210151Z 29013KT 10SM FEW060 FEW150 BKN190 BKN250 28/22 A2989 RMK AO2 RAB0053E29 SLP120 P0000 T02830222
 
KLGA - , , USA
Distance from station: WSW 29mi, 47km
Updated: 07/20/2017 9:51pm
Mostly Cloudy
Mostly Cloudy
 Wind from W
Wind: W 10 mph , 17 km/h
Temperature: 81°F , 27°C
Heat Index: 85°F , 29°C
Dew Point: 70°F , 21°C
Humidity: 70%
Barometer: 29.88 inHg , 1011.9 hPa
Clouds: Mostly Cloudy
Visibility: 10 miles , 16 km
Cloud details: Few Clouds 6000 ft
Partly Cloudy 17000 ft
Mostly Cloudy 24000 ft
2017/07/21 01:51 KLGA 210151Z 28009KT 10SM FEW060 SCT170 BKN240 27/21 A2988 RMK AO2 RAE03 SLP117 P0000 T02720211